Time;durP1;ratioP1;P1;durP2;ratioP2;P2;SDS_P1;SDS_P2;PMS_P1;PMS_P2;Temp;Humidity;BMP_temperature;BMP_pressure;BME280_temperature;BME280_humidity;BME280_pressure;Samples;Min_cycle;Max_cycle;Signal;HPM_P1;HPM_P2
2021/12/13 00:01:17;;;;;;;44.53;17.30;;;;;;;-3.92;99.59;101250.75;6053633;23;20480;-76
2021/12/13 00:03:53;;;;;;;46.58;20.23;;;;;;;-3.90;99.13;101259.31;6096991;23;20028;-75
2021/12/13 00:06:40;;;;;;;39.33;17.83;;;;;;;-3.91;99.44;101229.53;6085141;23;20028;-76
2021/12/13 00:09:12;;;;;;;32.83;17.10;;;;;;;-4.21;99.05;101174.38;6148661;23;20120;-76
2021/12/13 00:11:38;;;;;;;;;;;;;;;-3.90;99.00;101238.91;6078175;23;20024;-77
2021/12/13 00:14:07;;;;;;;35.88;14.70;;;;;;;-3.89;99.19;101222.75;6100869;23;19917;-77
2021/12/13 00:16:38;;;;;;;35.47;15.07;;;;;;;-3.93;99.27;101226.94;6125570;23;20021;-76
2021/12/13 00:19:09;;;;;;;33.15;14.55;;;;;;;-4.08;99.17;101200.16;6077205;23;20062;-75
2021/12/13 00:21:38;;;;;;;;;;;;;;;-3.93;99.24;101229.50;6101628;23;20481;-74
2021/12/13 00:24:19;;;;;;;29.52;13.45;;;;;;;-3.97;99.25;101224.28;6125679;23;19923;-77
2021/12/13 00:26:47;;;;;;;38.50;14.63;;;;;;;-3.94;99.31;101216.69;6081987;23;20022;-77
2021/12/13 00:29:18;;;;;;;31.95;15.15;;;;;;;-3.99;99.43;101210.63;6149824;23;20025;-75
2021/12/13 00:31:59;;;;;;;63.47;22.52;;;;;;;-4.15;99.57;101185.53;6100418;23;20662;-74
2021/12/13 00:34:59;;;;;;;62.28;21.42;;;;;;;-3.94;99.55;101220.13;6077891;23;20044;-75
2021/12/13 00:37:31;;;;;;;41.40;15.73;;;;;;;-3.92;99.75;101223.56;6126823;23;20017;-76
2021/12/13 00:40:22;;;;;;;33.38;14.68;;;;;;;-3.91;99.84;101225.28;6153085;23;20253;-77
2021/12/13 00:43:00;;;;;;;39.67;16.23;;;;;;;-3.92;99.88;101222.69;6175549;23;20524;-77
2021/12/13 00:45:31;;;;;;;57.67;18.73;;;;;;;-3.95;99.88;101232.81;6149242;23;20024;-76
2021/12/13 00:47:58;;;;;;;38.65;14.18;;;;;;;-3.91;99.89;101237.16;6100416;23;20446;-77
2021/12/13 00:50:47;;;;;;;37.42;15.25;;;;;;;-3.96;100.00;101220.91;6101090;23;20465;-76
2021/12/13 00:53:17;;;;;;;34.15;14.10;;;;;;;-3.92;99.68;101230.34;6104160;23;20474;-76
2021/12/13 00:56:03;;;;;;;56.92;17.80;;;;;;;-3.91;100.00;101229.53;6124725;23;20079;-75
2021/12/13 00:58:29;;;;;;;47.75;15.82;;;;;;;-4.06;99.90;101206.19;6100638;23;20544;-76
2021/12/13 01:01:06;;;;;;;50.13;17.45;;;;;;;-4.05;100.00;101206.22;6100706;23;20104;-76
2021/12/13 01:03:38;;;;;;;66.90;20.38;;;;;;;-3.92;100.00;101228.66;6079901;23;20032;-76
2021/12/13 01:06:42;;;;;;;49.88;16.50;;;;;;;-3.94;100.00;101225.22;6105367;23;20017;-77
2021/12/13 01:09:45;;;;;;;102.88;27.90;;;;;;;-3.93;100.00;101241.38;6157583;23;20025;-77
2021/12/13 01:12:14;;;;;;;28.23;10.95;;;;;;;-3.94;99.98;101226.91;6151039;23;20021;-77
2021/12/13 01:14:41;;;;;;;51.10;16.08;;;;;;;-3.93;99.91;101233.72;6078390;23;20025;-78
2021/12/13 01:20:27;;;;;;;35.53;14.95;;;;;;;-3.97;100.00;101227.69;6150116;23;20017;-76
2021/12/13 01:23:01;;;;;;;44.15;13.98;;;;;;;-3.94;100.00;101229.44;6055293;23;20028;-77
2021/12/13 01:26:02;;;;;;;72.63;24.92;;;;;;;-3.92;100.00;101215.03;6101709;23;20512;-77
2021/12/13 01:28:37;;;;;;;85.95;30.52;;;;;;;-3.94;100.00;101220.13;6109789;23;20863;-77
2021/12/13 01:31:07;;;;;;;93.20;32.05;;;;;;;-3.97;99.98;101206.41;6123871;23;20028;-76
2021/12/13 01:33:34;;;;;;;46.63;18.65;;;;;;;-3.99;99.95;101197.88;6124030;23;20332;-77
2021/12/13 01:36:04;;;;;;;53.30;20.30;;;;;;;-3.95;99.95;101212.41;6122619;23;20039;-76
2021/12/13 01:38:58;;;;;;;57.58;20.27;;;;;;;-3.94;99.79;101203.94;6102929;23;20032;-77
2021/12/13 01:41:31;;;;;;;94.10;33.72;;;;;;;-4.16;100.00;101160.88;6106383;23;20037;-77
2021/12/13 01:43:59;;;;;;;63.75;19.67;;;;;;;-4.02;99.74;101188.44;6103752;23;20100;-78
2021/12/13 01:46:25;;;;;;;64.07;21.60;;;;;;;-3.90;99.86;101209.16;6078564;23;20021;-77
2021/12/13 01:48:53;;;;;;;42.45;16.17;;;;;;;-3.98;99.95;101207.22;6104520;23;20017;-76
2021/12/13 01:51:21;;;;;;;93.60;27.70;;;;;;;-3.95;99.84;101203.06;6081245;23;20111;-78
2021/12/13 01:54:18;;;;;;;86.20;26.27;;;;;;;-3.92;100.00;101204.84;6103024;23;20087;-78
2021/12/13 01:56:59;;;;;;;49.85;17.90;;;;;;;-3.92;99.92;101194.63;6128233;23;20017;-78
2021/12/13 01:59:43;;;;;;;72.45;19.90;;;;;;;-3.95;100.00;101204.75;6127732;23;20112;-77
2021/12/13 02:02:17;;;;;;;59.22;19.48;;;;;;;-3.96;99.97;101200.50;6152200;23;20045;-77
2021/12/13 02:04:46;;;;;;;68.53;21.80;;;;;;;-4.07;99.95;101177.28;6028571;23;20013;-75
2021/12/13 02:07:12;;;;;;;72.35;20.48;;;;;;;-3.97;99.97;101198.78;6099124;23;20084;-76
2021/12/13 02:09:41;;;;;;;39.53;15.43;;;;;;;-4.01;100.00;101194.41;6125896;23;20033;-75
2021/12/13 02:12:14;;;;;;;54.10;18.67;;;;;;;-4.01;99.96;101191.88;6100985;23;20092;-74
2021/12/13 02:17:39;;;;;;;57.83;19.02;;;;;;;-4.07;99.88;101177.28;6151956;23;20023;-76
2021/12/13 02:20:38;;;;;;;76.38;22.10;;;;;;;-3.92;99.94;101199.72;6076105;23;20019;-76
2021/12/13 02:23:05;;;;;;;54.45;17.63;;;;;;;-3.92;100.00;101197.19;6101319;23;20481;-76
2021/12/13 02:25:43;;;;;;;53.00;17.48;;;;;;;-3.90;100.00;101203.22;6125986;23;20021;-75
2021/12/13 02:28:18;;;;;;;87.80;26.42;;;;;;;-3.91;100.00;101198.91;6077555;23;20033;-76
2021/12/13 02:31:06;;;;;;;74.18;23.30;;;;;;;-3.91;100.00;101193.81;6124519;23;20104;-76
2021/12/13 02:33:39;;;;;;;106.90;28.58;;;;;;;-3.91;100.00;101192.13;6124185;23;20024;-75
2021/12/13 02:36:14;;;;;;;121.85;34.63;;;;;;;-4.02;100.00;101164.63;6077336;23;20022;-75
2021/12/13 02:38:40;;;;;;;91.03;25.48;;;;;;;-3.96;100.00;101175.00;6098900;23;20029;-75
2021/12/13 02:41:06;;;;;;;124.07;36.95;;;;;;;-3.89;100.00;101180.28;6149327;23;20148;-75
2021/12/13 02:43:39;;;;;;;131.45;35.72;;;;;;;-3.89;100.00;101177.72;6149790;23;20357;-74
2021/12/13 02:46:05;;;;;;;109.75;33.10;;;;;;;-3.91;100.00;101178.53;6100598;23;20024;-75
2021/12/13 02:48:38;;;;;;;85.55;23.83;;;;;;;-3.95;99.99;101174.16;6100552;23;20647;-76
2021/12/13 02:51:08;;;;;;;115.72;31.38;;;;;;;-3.93;100.00;101165.75;6101353;23;20020;-76
2021/12/13 02:53:41;;;;;;;140.23;35.93;;;;;;;-3.92;100.00;101167.44;6101014;23;20048;-75
2021/12/13 02:56:07;;;;;;;157.20;42.60;;;;;;;-3.85;100.00;101181.22;6149213;23;20101;-75
2021/12/13 02:58:33;;;;;;;89.35;23.58;;;;;;;-3.92;100.00;101162.34;6100851;23;20023;-75
2021/12/13 03:01:07;;;;;;;69.90;20.63;;;;;;;-3.87;100.00;101165.88;6076932;23;20021;-74
2021/12/13 03:03:38;;;;;;;86.20;23.52;;;;;;;-3.92;100.00;101161.47;6100505;23;20024;-75
2021/12/13 03:06:06;;;;;;;82.28;24.80;;;;;;;-3.89;100.00;101164.09;6149468;23;20068;-74
2021/12/13 03:08:42;;;;;;;135.30;36.30;;;;;;;-3.91;100.00;101160.66;6103543;23;20095;-76
2021/12/13 03:11:24;;;;;;;138.10;35.03;;;;;;;-3.90;100.00;101157.31;6155546;23;20109;-75
2021/12/13 03:14:16;;;;;;;91.03;24.13;;;;;;;-3.85;100.00;101169.31;6103782;23;20346;-77
2021/12/13 03:16:47;;;;;;;121.43;30.58;;;;;;;-3.85;100.00;101168.47;6127041;23;20521;-75
2021/12/13 03:19:40;;;;;;;153.33;35.70;;;;;;;-3.81;100.00;101170.25;6077166;23;20029;-76
2021/12/13 03:22:40;;;;;;;110.68;30.77;;;;;;;-3.80;100.00;101161.81;6124860;23;20025;-76
2021/12/13 03:25:27;;;;;;;62.58;19.73;;;;;;;-3.79;100.00;101158.41;6125520;23;20021;-76
2021/12/13 03:28:14;;;;;;;85.65;23.52;;;;;;;-3.93;100.00;101135.16;6149852;23;20347;-76
2021/12/13 03:30:44;;;;;;;128.73;32.08;;;;;;;-3.81;100.00;101155.84;6149896;23;20025;-76
2021/12/13 03:33:11;;;;;;;118.55;30.17;;;;;;;-3.82;100.00;101153.22;6149861;23;20017;-76
2021/12/13 03:35:42;;;;;;;134.48;36.95;;;;;;;-3.78;100.00;101155.03;6151956;23;20017;-76
2021/12/13 03:38:15;;;;;;;115.15;28.88;;;;;;;-3.77;100.00;101149.97;6155150;23;20480;-76
2021/12/13 03:40:41;;;;;;;107.88;29.85;;;;;;;-3.84;99.89;101131.94;6156267;23;20416;-75
2021/12/13 03:43:14;;;;;;;153.77;41.67;;;;;;;-3.93;100.00;101118.97;6106338;23;20016;-77
2021/12/13 03:45:47;;;;;;;106.07;30.10;;;;;;;-3.82;99.81;101132.81;6129325;23;20397;-76
2021/12/13 03:48:15;;;;;;;119.28;34.13;;;;;;;-3.92;99.46;101121.53;6154492;23;20052;-76
2021/12/13 03:50:43;;;;;;;99.28;30.80;;;;;;;-3.84;99.84;101143.00;6106486;23;20103;-76
2021/12/13 03:53:21;;;;;;;111.20;34.83;;;;;;;-3.75;99.63;101155.97;6130815;23;20024;-75
2021/12/13 03:55:49;;;;;;;76.97;23.60;;;;;;;-3.79;99.31;101143.09;6082385;23;20024;-76
2021/12/13 03:58:17;;;;;;;89.20;26.52;;;;;;;-3.75;99.47;101150.00;6181097;23;20021;-75
2021/12/13 04:00:57;;;;;;;48.45;15.10;;;;;;;-3.79;99.30;101148.19;6130062;23;20024;-75
2021/12/13 04:03:24;;;;;;;49.03;18.52;;;;;;;-3.73;99.38;101143.25;6106608;23;20079;-75
2021/12/13 04:05:53;;;;;;;70.95;20.95;;;;;;;-3.73;99.03;101148.38;6180883;23;20045;-75
2021/12/13 04:08:20;;;;;;;70.55;23.23;;;;;;;-3.71;98.84;101146.72;6129614;23;20550;-75
2021/12/13 04:10:49;;;;;;;64.53;24.98;;;;;;;-3.75;99.00;101130.47;6156460;23;20024;-76
2021/12/13 04:13:16;;;;;;;42.50;16.42;;;;;;;-3.70;98.84;101145.88;6161216;23;20024;-74
2021/12/13 04:21:19;;;;;;;59.67;20.20;;;;;;;-3.76;99.17;101120.22;6179942;23;20017;-75
2021/12/13 04:23:56;;;;;;;45.88;15.00;;;;;;;-3.85;99.16;101102.16;6181444;23;20036;-76
2021/12/13 04:26:22;;;;;;;48.45;17.52;;;;;;;-3.79;99.12;101126.09;6073397;23;20020;-76
2021/12/13 04:28:51;;;;;;;70.70;23.88;;;;;;;-3.71;99.24;101124.63;6147547;23;20021;-76
2021/12/13 04:31:19;;;;;;;59.03;20.20;;;;;;;-3.71;99.44;101129.72;6149041;23;20537;-75
2021/12/13 04:33:48;;;;;;;83.70;26.20;;;;;;;-3.75;99.24;101114.28;6099023;23;20056;-75
2021/12/13 04:36:18;;;;;;;56.28;17.40;;;;;;;-3.76;99.44;101108.31;6135640;23;20021;-77
2021/12/13 04:39:05;;;;;;;47.05;17.33;;;;;;;-3.75;99.27;101121.94;6052911;23;20025;-77
2021/12/13 04:41:37;;;;;;;54.17;18.48;;;;;;;-3.72;99.29;101122.00;6124398;23;20021;-75
2021/12/13 04:44:11;;;;;;;75.18;22.88;;;;;;;-3.75;99.40;101114.28;6100864;23;20473;-77
2021/12/13 04:46:39;;;;;;;52.75;16.50;;;;;;;-3.74;99.38;101093.06;6100954;23;20029;-76
2021/12/13 04:49:10;;;;;;;18.70;9.18;;;;;;;-3.91;99.44;101076.50;6099608;23;20061;-77
2021/12/13 04:51:41;;;;;;;47.42;15.73;;;;;;;-3.81;99.57;101093.75;6075818;23;20023;-76
2021/12/13 04:54:07;;;;;;;73.40;22.23;;;;;;;-3.82;99.75;101102.22;6099324;23;20023;-76
2021/12/13 04:56:33;;;;;;;64.95;20.08;;;;;;;-3.77;99.65;101108.31;6099800;23;20017;-77
2021/12/13 04:59:00;;;;;;;67.80;17.85;;;;;;;-3.74;99.67;101105.81;6051791;23;20288;-76
2021/12/13 05:01:26;;;;;;;94.85;27.52;;;;;;;-3.78;99.73;101098.91;6123956;23;20017;-76
2021/12/13 05:03:57;;;;;;;51.38;16.67;;;;;;;-3.82;99.61;101081.81;6075039;23;20339;-76
2021/12/13 05:06:28;;;;;;;87.63;26.75;;;;;;;-3.88;99.67;101076.56;6075787;23;20022;-76
2021/12/13 05:08:58;;;;;;;72.40;20.20;;;;;;;-3.97;99.67;101061.06;6077859;23;20025;-76
2021/12/13 05:11:33;;;;;;;96.22;27.45;;;;;;;-3.77;99.72;101104.06;6102316;23;20480;-78
2021/12/13 05:14:00;;;;;;;51.13;18.00;;;;;;;-3.74;99.62;101108.38;6075423;23;20025;-77
2021/12/13 05:16:58;;;;;;;39.65;14.98;;;;;;;-3.72;99.52;101104.16;6123964;23;20021;-76
2021/12/13 05:19:32;;;;;;;62.50;17.70;;;;;;;-3.87;99.85;101088.50;6050926;23;20021;-77
2021/12/13 05:22:01;;;;;;;88.30;26.83;;;;;;;-3.82;99.70;101094.56;6100031;23;20048;-76
2021/12/13 05:24:31;;;;;;;60.40;15.77;;;;;;;-3.69;99.58;101122.06;6051927;23;20053;-76
2021/12/13 05:27:07;;;;;;;51.08;16.25;;;;;;;-3.74;99.84;101093.06;6075509;23;20112;-77
2021/12/13 05:29:46;;;;;;;84.43;21.33;;;;;;;-3.72;99.71;101110.13;6052737;23;20357;-75
2021/12/13 05:32:18;;;;;;;93.30;25.90;;;;;;;-3.93;99.85;101070.53;6123101;23;20021;-76
2021/12/13 05:34:51;;;;;;;43.67;15.15;;;;;;;-3.86;99.75;101085.16;6076189;23;20072;-80
2021/12/13 05:37:17;;;;;;;76.13;19.80;;;;;;;-3.78;99.79;101093.81;6075191;23;20435;-76
2021/12/13 05:39:59;;;;;;;92.78;30.38;;;;;;;-3.73;99.86;101105.00;6123472;23;20406;-78
2021/12/13 05:42:41;;;;;;;71.60;19.48;;;;;;;-3.72;99.85;101117.78;6075696;23;20075;-77
2021/12/13 05:45:09;;;;;;;49.30;15.65;;;;;;;-3.68;99.80;101111.06;6098975;23;20083;-77
2021/12/13 05:47:35;;;;;;;81.97;30.70;;;;;;;-3.87;99.45;101078.31;6080775;23;20049;-77
2021/12/13 05:50:05;;;;;;;38.80;15.35;;;;;;;-3.68;99.80;101105.97;6080369;23;20022;-79
2021/12/13 05:52:37;;;;;;;59.65;19.85;;;;;;;-3.66;99.72;101128.97;6100077;23;20024;-76
2021/12/13 05:55:10;;;;;;;;;;;;;;;-3.66;99.88;101121.31;6123740;23;20389;-78
2021/12/13 05:57:41;;;;;;;66.80;17.92;;;;;;;-3.71;99.56;101111.84;6123540;23;19916;-77
2021/12/13 06:00:30;;;;;;;95.97;26.90;;;;;;;-3.74;99.76;101100.72;6123382;23;20111;-78
2021/12/13 06:03:16;;;;;;;56.40;16.80;;;;;;;-3.70;99.69;101110.16;6099090;23;20021;-79
2021/12/13 06:05:48;;;;;;;71.78;22.45;;;;;;;-3.65;99.65;101117.91;6076995;23;20059;-77
2021/12/13 06:08:16;;;;;;;51.13;15.93;;;;;;;-3.79;99.54;101092.09;6099266;23;20048;-76
2021/12/13 06:10:59;;;;;;;80.60;23.33;;;;;;;-3.69;99.81;101104.22;6099065;23;20330;-75
2021/12/13 06:13:48;;;;;;;72.38;22.85;;;;;;;-3.65;99.65;101108.56;6090123;23;20101;-78
2021/12/13 06:16:37;;;;;;;82.20;25.00;;;;;;;-3.71;99.77;101104.19;6114095;23;20104;-78
2021/12/13 06:19:25;;;;;;;74.28;22.20;;;;;;;-3.72;99.83;101104.16;6118988;23;20132;-75
2021/12/13 06:22:08;;;;;;;96.65;27.38;;;;;;;-3.67;99.72;101110.25;6119222;23;20428;-73
2021/12/13 06:24:45;;;;;;;100.53;30.73;;;;;;;-3.61;99.70;101117.16;6075337;23;20025;-76
2021/12/13 06:27:26;;;;;;;72.75;19.00;;;;;;;-3.71;99.87;101095.69;6094540;23;20018;-76
2021/12/13 06:29:56;;;;;;;34.78;15.60;;;;;;;-3.60;99.72;101114.66;6075039;23;20053;-79
2021/12/13 06:36:39;;;;;;;;;;;;;;;-3.57;99.55;101108.75;6142847;23;20043;-74
2021/12/13 06:39:30;;;;;;;82.93;22.88;;;;;;;-3.57;99.82;101114.72;6178250;23;19970;-77
2021/12/13 06:42:00;;;;;;;57.05;20.52;;;;;;;-3.57;99.76;101104.50;6127361;23;20021;-75
2021/12/13 06:44:45;;;;;;;59.10;15.75;;;;;;;-3.73;99.55;101076.94;6099736;23;20075;-75
2021/12/13 06:47:20;;;;;;;77.30;21.90;;;;;;;-3.76;99.12;101066.63;6123082;23;20021;-76
2021/12/13 06:49:57;;;;;;;76.63;23.92;;;;;;;-3.54;99.43;101106.25;6128891;23;20028;-75
2021/12/13 06:52:48;;;;;;;69.10;18.73;;;;;;;-3.60;99.31;101099.34;6132124;23;20481;-77
2021/12/13 06:55:15;;;;;;;;;;;;;;;-3.53;99.37;101124.16;6135256;23;20021;-76
2021/12/13 06:58:13;;;;;;;42.58;15.02;;;;;;;-3.56;99.03;101115.56;6101839;23;19916;-75
2021/12/13 07:00:40;;;;;;;53.78;15.55;;;;;;;-3.58;98.92;101105.34;6100855;23;20025;-76
2021/12/13 07:03:16;;;;;;;70.47;19.75;;;;;;;-3.58;98.89;101107.88;6082783;23;20116;-77
2021/12/13 07:05:59;;;;;;;40.55;15.10;;;;;;;-3.53;98.65;101111.38;6086470;23;20108;-75
2021/12/13 07:08:31;;;;;;;61.85;18.33;;;;;;;-3.62;98.66;101095.00;6060380;23;20016;-77
2021/12/13 07:11:21;;;;;;;55.42;19.33;;;;;;;-3.50;98.51;101106.34;6085314;23;20676;-74
2021/12/13 07:14:36;;;;;;;46.10;16.40;;;;;;;-3.50;98.50;101096.13;6123584;23;20048;-76
2021/12/13 07:17:13;;;;;;;55.90;19.13;;;;;;;-3.52;98.15;101091.84;6152059;23;20023;-75
2021/12/13 07:19:42;;;;;;;34.42;14.07;;;;;;;-3.57;97.95;101089.22;6079802;23;20039;-76
2021/12/13 07:22:17;;;;;;;52.08;17.63;;;;;;;-3.56;97.81;101093.47;6080483;23;20017;-76
2021/12/13 07:24:54;;;;;;;42.33;17.98;;;;;;;-3.59;97.83;101085.75;6130184;23;20512;-75
2021/12/13 07:27:32;;;;;;;35.83;13.50;;;;;;;-3.56;97.60;101085.81;6105071;23;20021;-76
2021/12/13 07:30:12;;;;;;;63.63;18.95;;;;;;;-3.54;97.41;101090.97;6175948;23;20044;-76
2021/12/13 07:32:46;;;;;;;54.58;18.73;;;;;;;-3.46;97.75;101108.16;6129738;23;20222;-76
2021/12/13 07:35:16;;;;;;;52.08;19.35;;;;;;;-3.50;97.42;101100.41;6079041;23;20044;-76
2021/12/13 07:37:46;;;;;;;45.20;18.95;;;;;;;-3.40;97.59;101112.50;6098982;23;20018;-76
2021/12/13 07:40:14;;;;;;;61.92;22.42;;;;;;;-3.42;97.29;101117.59;6123315;23;20156;-77
2021/12/13 07:42:45;;;;;;;68.53;23.73;;;;;;;-3.54;97.06;101084.16;6147786;23;20022;-77
2021/12/13 07:45:43;;;;;;;53.15;21.73;;;;;;;-3.38;97.06;101114.28;6076858;23;20100;-76
2021/12/13 07:48:38;;;;;;;101.07;33.88;;;;;;;-3.43;96.66;101108.22;6123982;23;20597;-77
2021/12/13 07:51:20;;;;;;;68.32;23.60;;;;;;;-3.44;96.68;101106.50;6095635;23;20026;-77
2021/12/13 07:53:52;;;;;;;89.47;29.52;;;;;;;-3.33;96.62;101120.34;6150296;23;20048;-76
2021/12/13 07:56:28;;;;;;;44.95;19.25;;;;;;;-3.41;96.40;101111.69;6075557;23;20017;-77
2021/12/13 07:59:08;;;;;;;64.43;22.52;;;;;;;-3.36;96.25;101104.09;6124979;23;20013;-80
2021/12/13 08:01:40;;;;;;;77.07;29.63;;;;;;;-3.45;95.92;101079.25;6080962;23;20429;-78
2021/12/13 08:04:17;;;;;;;66.35;23.27;;;;;;;-3.38;95.69;101091.31;6173212;23;20366;-77
2021/12/13 08:06:48;;;;;;;71.85;25.75;;;;;;;-3.27;96.04;101107.69;6100471;23;20024;-80
2021/12/13 08:09:23;;;;;;;49.45;19.48;;;;;;;-3.24;95.93;101110.31;6099682;23;20025;-75
2021/12/13 08:11:52;;;;;;;50.15;20.35;;;;;;;-3.52;95.68;101071.41;6147999;23;20028;-78
2021/12/13 08:14:38;;;;;;;78.35;27.13;;;;;;;-3.20;95.35;101109.56;6074814;23;20025;-78
2021/12/13 08:17:16;;;;;;;60.80;22.20;;;;;;;-3.25;95.69;101103.50;6148492;23;20017;-76
2021/12/13 08:19:51;;;;;;;66.88;24.25;;;;;;;-3.18;95.37;101109.59;6107477;23;20045;-80
2021/12/13 08:22:19;;;;;;;67.72;25.30;;;;;;;-3.13;95.25;101112.22;6084391;23;20049;-78
2021/12/13 08:24:52;;;;;;;53.78;22.15;;;;;;;-3.32;95.16;101086.34;6125195;23;20021;-78
2021/12/13 08:27:28;;;;;;;68.38;23.55;;;;;;;-3.24;95.19;101084.78;6098319;23;20021;-76
2021/12/13 08:30:31;;;;;;;61.20;23.15;;;;;;;-3.06;94.96;101124.31;6076057;23;20013;-78
2021/12/13 08:33:06;;;;;;;76.85;30.70;;;;;;;-3.37;94.84;101072.59;6073406;23;20095;-77
2021/12/13 08:35:54;;;;;;;61.28;24.50;;;;;;;-3.12;94.83;101116.53;6147913;23;20018;-76
2021/12/13 08:38:34;;;;;;;44.88;15.77;;;;;;;-3.25;95.14;101077.13;6075067;23;20021;-79
2021/12/13 08:41:15;;;;;;;57.67;21.75;;;;;;;-3.05;95.00;101106.47;6147938;23;20076;-77
2021/12/13 08:43:55;;;;;;;81.40;29.23;;;;;;;-3.05;94.76;101111.59;6147793;23;20021;-77
2021/12/13 08:46:56;;;;;;;70.47;28.85;;;;;;;-3.01;94.75;101107.41;6147507;23;20072;-78
2021/12/13 08:49:43;;;;;;;58.30;22.88;;;;;;;-3.03;95.15;101103.94;6123195;23;20025;-78
2021/12/13 08:52:14;;;;;;;51.08;20.05;;;;;;;-3.06;94.96;101101.31;6076662;23;20013;-78
2021/12/13 08:54:51;;;;;;;74.57;29.08;;;;;;;-3.06;94.85;101093.66;6098758;23;20027;-78
2021/12/13 08:57:47;;;;;;;35.33;15.88;;;;;;;-3.01;95.07;101108.22;6100127;23;20053;-77
2021/12/13 09:00:13;;;;;;;55.75;24.10;;;;;;;-2.98;94.51;101099.78;6098281;23;20024;-78
2021/12/13 09:02:42;;;;;;;37.45;17.60;;;;;;;-2.94;94.29;101110.09;6148225;23;20018;-75
2021/12/13 09:05:14;;;;;;;70.38;28.50;;;;;;;-3.19;93.96;101062.78;6073735;23;20414;-75
2021/12/13 09:08:13;;;;;;;84.05;33.90;;;;;;;-2.89;94.39;101105.06;6071984;23;20513;-75
2021/12/13 09:10:39;;;;;;;67.15;26.80;;;;;;;-2.84;93.79;101101.75;6097044;23;20026;-76
2021/12/13 09:13:05;;;;;;;49.08;20.80;;;;;;;-2.86;93.89;101098.34;6125575;23;20017;-76
2021/12/13 09:15:34;;;;;;;48.58;20.38;;;;;;;-2.78;94.03;101095.94;6074567;23;20029;-75
2021/12/13 09:18:02;;;;;;;53.95;23.05;;;;;;;-2.89;94.36;101079.53;6122937;23;20021;-75
2021/12/13 09:20:43;;;;;;;62.83;25.85;;;;;;;-2.89;94.19;101071.88;6075478;23;20025;-75
2021/12/13 09:23:31;;;;;;;51.78;21.23;;;;;;;-2.81;94.54;101070.28;6077595;23;20022;-75
2021/12/13 09:26:04;;;;;;;44.63;19.70;;;;;;;-2.81;94.51;101076.28;6146158;23;20349;-75
2021/12/13 09:28:45;;;;;;;49.15;21.75;;;;;;;-2.98;94.82;101047.03;6147182;23;20092;-75
2021/12/13 09:31:21;;;;;;;42.13;19.92;;;;;;;-2.88;94.41;101048.06;6098298;23;20017;-75
2021/12/13 09:33:50;;;;;;;54.97;25.02;;;;;;;-2.66;94.07;101070.59;6123342;23;20021;-75
2021/12/13 09:36:26;;;;;;;51.85;20.92;;;;;;;-2.64;93.83;101053.59;6146940;23;20022;-73
2021/12/13 09:39:04;;;;;;;44.90;18.80;;;;;;;-2.60;94.34;101047.69;6146795;23;20021;-75
2021/12/13 09:41:42;;;;;;;34.08;16.08;;;;;;;-2.69;93.89;101034.78;6146591;23;20048;-75
2021/12/13 09:44:08;;;;;;;52.28;22.00;;;;;;;-2.58;94.11;101048.56;6147421;23;20021;-75
2021/12/13 09:46:52;;;;;;;57.85;22.27;;;;;;;-2.66;94.46;101030.56;6145076;23;20022;-75
2021/12/13 09:49:38;;;;;;;34.97;16.77;;;;;;;-2.61;94.57;101043.41;6144844;23;20436;-75
2021/12/13 09:52:10;;;;;;;46.65;20.73;;;;;;;-2.58;94.33;101046.03;6122738;23;20021;-75
2021/12/13 09:54:46;;;;;;;46.70;20.30;;;;;;;-2.54;94.74;101044.38;6149061;23;20161;-75
2021/12/13 09:57:18;;;;;;;46.55;20.05;;;;;;;-2.67;94.78;101022.88;6147063;23;20468;-76
2021/12/13 09:59:48;;;;;;;49.97;18.88;;;;;;;-2.65;94.96;101014.38;6149413;23;20022;-75
2021/12/13 10:02:28;;;;;;;48.13;20.77;;;;;;;-2.54;95.25;101034.16;6125197;23;20021;-75
2021/12/13 10:04:54;;;;;;;42.35;20.63;;;;;;;-2.53;95.04;101026.53;6098970;23;20013;-75
2021/12/13 10:07:35;;;;;;;47.28;19.70;;;;;;;-2.43;95.05;101030.97;6099645;23;20033;-75
2021/12/13 10:10:21;;;;;;;51.30;24.40;;;;;;;-2.38;94.83;101034.44;6148891;23;20025;-77
2021/12/13 10:12:59;;;;;;;52.15;22.48;;;;;;;-2.44;94.75;101021.56;6109189;23;20513;-76
2021/12/13 10:15:37;;;;;;;38.30;17.67;;;;;;;-2.55;95.17;101005.19;6118066;23;20093;-75
2021/12/13 10:18:10;;;;;;;49.78;23.05;;;;;;;-2.41;95.00;101018.19;6142789;23;20017;-75
2021/12/13 10:20:39;;;;;;;45.88;20.35;;;;;;;-2.32;95.42;101031.09;6139376;23;20076;-76
2021/12/13 10:23:07;;;;;;;53.08;24.42;;;;;;;-2.41;95.42;101013.94;6149281;23;20434;-76
2021/12/13 10:25:36;;;;;;;52.67;20.92;;;;;;;-2.32;94.90;101016.63;6123695;23;20049;-75
2021/12/13 10:28:04;;;;;;;43.20;20.48;;;;;;;-2.34;95.59;101031.09;6123345;23;20032;-76
2021/12/13 10:30:33;;;;;;;50.45;21.83;;;;;;;-2.31;95.06;101014.94;6124957;23;20079;-75
2021/12/13 10:33:25;;;;;;;38.13;18.63;;;;;;;-2.27;96.12;101027.81;6123419;23;20022;-75
2021/12/13 10:35:53;;;;;;;53.88;22.85;;;;;;;-2.25;95.55;101028.69;6147611;23;20120;-75
2021/12/13 10:38:40;;;;;;;46.88;20.58;;;;;;;-2.23;95.58;101018.50;6081752;23;20031;-75
2021/12/13 10:41:43;;;;;;;49.50;23.92;;;;;;;-2.33;95.66;101004.72;6105581;23;20024;-75
2021/12/13 10:44:16;;;;;;;51.38;24.20;;;;;;;-2.27;95.71;101011.59;6100625;23;20048;-76
2021/12/13 10:46:45;;;;;;;60.70;25.50;;;;;;;-2.32;95.65;100998.75;6081061;23;20368;-76
2021/12/13 10:49:14;;;;;;;48.42;21.88;;;;;;;-2.18;95.47;101029.63;6082406;23;20024;-77
2021/12/13 10:51:43;;;;;;;49.88;23.23;;;;;;;-2.20;96.25;101029.63;6131703;23;20072;-78
2021/12/13 10:54:58;;;;;;;50.20;23.80;;;;;;;-2.12;96.48;101030.59;6153198;23;20041;-79
2021/12/13 10:57:30;;;;;;;53.05;25.38;;;;;;;-2.18;95.96;101010.03;6104580;23;20039;-77
2021/12/13 10:59:57;;;;;;;53.28;24.38;;;;;;;-2.25;96.07;101008.22;6129865;23;20536;-76
2021/12/13 11:02:32;;;;;;;40.38;21.48;;;;;;;-2.06;96.40;101031.53;6129395;23;20021;-75
2021/12/13 11:05:16;;;;;;;54.10;24.83;;;;;;;-2.06;95.87;101027.25;6104543;23;20067;-77
2021/12/13 11:07:44;;;;;;;46.80;20.58;;;;;;;-2.01;96.05;101032.47;6132124;23;20604;-76
2021/12/13 11:10:15;;;;;;;53.35;23.70;;;;;;;-2.07;95.77;101019.56;6082703;23;20322;-76
2021/12/13 11:12:45;;;;;;;43.70;20.73;;;;;;;-1.94;96.03;101029.16;6107239;23;20515;-76
2021/12/13 11:15:14;;;;;;;51.10;23.15;;;;;;;-1.89;95.96;101027.50;6085169;23;20517;-76
2021/12/13 11:17:41;;;;;;;42.97;20.10;;;;;;;-2.01;95.85;101001.75;6106998;23;20111;-77
2021/12/13 11:20:14;;;;;;;46.10;21.20;;;;;;;-1.83;95.74;101032.75;6082115;23;20108;-79
2021/12/13 11:22:41;;;;;;;38.67;16.08;;;;;;;-1.89;95.31;101025.81;6106884;23;20020;-78
2021/12/13 11:25:13;;;;;;;33.53;19.13;;;;;;;-1.87;95.62;101036.94;6084487;23;20370;-78
2021/12/13 11:27:39;;;;;;;50.28;23.45;;;;;;;-1.86;95.26;101028.41;6058157;23;20043;-79
2021/12/13 11:30:12;;;;;;;40.47;21.50;;;;;;;-1.84;95.63;101036.13;6105416;23;20017;-78
2021/12/13 11:32:38;;;;;;;41.90;19.23;;;;;;;-1.83;95.81;101027.63;6108422;23;20017;-78
2021/12/13 11:35:07;;;;;;;46.85;22.02;;;;;;;-1.83;95.30;101019.94;6153768;23;20024;-78
2021/12/13 11:38:10;;;;;;;57.28;25.88;;;;;;;-1.96;95.51;101000.16;6149862;23;20033;-76
2021/12/13 11:41:07;;;;;;;44.53;21.27;;;;;;;-1.90;96.15;101003.66;6105458;23;20377;-76
2021/12/13 11:44:12;;;;;;;48.83;21.85;;;;;;;-1.84;96.11;101023.34;6148416;23;20022;-78
2021/12/13 11:47:22;;;;;;;58.28;24.38;;;;;;;-1.82;95.94;101024.19;6119388;23;20132;-78
2021/12/13 11:49:48;;;;;;;45.50;21.08;;;;;;;-1.95;96.22;101012.06;6124572;23;20615;-76
2021/12/13 11:52:36;;;;;;;45.53;22.63;;;;;;;-1.90;96.73;101020.69;6124902;23;20028;-77
2021/12/13 11:55:35;;;;;;;53.83;24.20;;;;;;;-1.87;96.52;101015.63;6151723;23;20017;-76
2021/12/13 11:58:44;;;;;;;45.42;21.55;;;;;;;-1.88;96.89;101011.31;6149317;23;20060;-77
2021/12/13 12:01:32;;;;;;;45.25;21.25;;;;;;;-1.91;97.13;100998.50;6146608;23;20579;-76
2021/12/13 12:04:07;;;;;;;35.13;16.90;;;;;;;-2.01;96.80;100971.94;6123035;23;20021;-76
2021/12/13 12:07:05;;;;;;;23.83;12.25;;;;;;;-1.84;97.25;100984.94;6149475;23;20379;-76